Terminal Aerodrome Forecast
Issued by NWS

Home | Current Version | Previous Version | Text Only | Print | Product List | Glossary On
Versions: 1 2 3 4 5 6 7 8 9 10 11 12 13 14 15 16 17 18 19 20 21 22 23 24
000
FTUS46 KSEW 300500 RRA
TAFBFI
TAF
KBFI 300544Z 3006/0106 VRB05KT P6SM VCSH OVC020
      TEMPO 3006/3009 -SHRA
     FM300900 17005KT 4SM -SHRA BR BKN007 OVC015
     FM301500 17005KT P6SM VCSH BKN020 OVC035
     FM302000 20006KT P6SM BKN035 OVC050 PROB30 3020/0102 -SHRA
     FM010200 VRB03KT P6SM SCT035 BKN050 PROB30 0102/0106 -SHRA=

USA.gov is the U.S. government's official web portal to all federal, state and local government web resources and services.